createdAt,value
2019-05-19T00:00:10.407Z,18.6
2019-05-19T00:01:12.862Z,18.6
2019-05-19T00:02:15.030Z,18.5
2019-05-19T00:03:17.176Z,18.6
2019-05-19T00:04:19.341Z,18.6
2019-05-19T00:05:21.480Z,18.7
2019-05-19T00:06:23.916Z,18.6
2019-05-19T00:07:26.336Z,18.6
2019-05-19T00:08:28.502Z,18.6
2019-05-19T00:09:30.943Z,18.5
2019-05-19T00:10:33.110Z,18.6
2019-05-19T00:11:35.522Z,18.6
2019-05-19T00:12:37.406Z,18.7
2019-05-19T00:13:39.275Z,18.5
2019-05-19T00:14:41.922Z,18.7
2019-05-19T00:15:43.514Z,18.6
2019-05-19T00:16:45.400Z,18.7
2019-05-19T00:17:47.856Z,18.7
2019-05-19T00:18:50.014Z,18.7
2019-05-19T00:19:52.447Z,18.7
2019-05-19T00:20:54.602Z,18.7
2019-05-19T00:21:56.774Z,18.7
2019-05-19T00:22:59.205Z,18.6
2019-05-19T00:24:01.091Z,18.7
2019-05-19T00:25:03.524Z,18.7
2019-05-19T00:26:05.952Z,18.7
2019-05-19T00:27:08.117Z,18.8
2019-05-19T00:28:10.001Z,18.7
2019-05-19T00:29:12.132Z,18.7
2019-05-19T00:30:13.995Z,18.7
2019-05-19T00:31:16.512Z,18.7
2019-05-19T00:32:18.787Z,18.7
2019-05-19T00:33:21.212Z,18.8
2019-05-19T00:34:23.635Z,18.8
2019-05-19T00:35:25.824Z,18.8
2019-05-19T00:36:28.264Z,18.7
2019-05-19T00:37:30.392Z,18.7
2019-05-19T00:38:32.824Z,18.7
2019-05-19T00:39:35.277Z,18.8
2019-05-19T00:40:37.704Z,18.7
2019-05-19T00:41:40.132Z,18.7
2019-05-19T00:42:42.286Z,18.7
2019-05-19T00:43:44.758Z,18.7
2019-05-19T00:44:47.158Z,18.8
2019-05-19T00:45:49.023Z,18.8
2019-05-19T00:46:51.206Z,18.8
2019-05-19T00:47:53.362Z,18.7
2019-05-19T00:48:55.792Z,18.8
2019-05-19T00:49:57.964Z,18.8
2019-05-19T00:51:00.392Z,18.7
2019-05-19T00:52:02.556Z,18.8
2019-05-19T00:53:04.975Z,18.8
2019-05-19T00:54:07.126Z,18.8
2019-05-19T00:55:09.545Z,18.8
2019-05-19T00:56:11.582Z,18.8
2019-05-19T00:57:14.016Z,18.8
2019-05-19T00:58:16.450Z,18.8
2019-05-19T00:59:18.873Z,18.8
2019-05-19T01:00:21.044Z,18.8
2019-05-19T01:01:23.470Z,18.8
2019-05-19T01:02:25.630Z,18.8
2019-05-19T01:03:28.069Z,18.7
2019-05-19T01:04:30.228Z,18.8
2019-05-19T01:05:32.114Z,18.8
2019-05-19T01:06:34.257Z,18.8
2019-05-19T01:07:36.391Z,18.8
2019-05-19T01:08:38.839Z,18.8
2019-05-19T01:09:41.264Z,18.8
2019-05-19T01:10:43.408Z,18.8
2019-05-19T01:11:45.045Z,18.8
2019-05-19T01:12:47.210Z,18.7
2019-05-19T01:13:49.643Z,18.8
2019-05-19T01:14:52.074Z,18.8
2019-05-19T01:15:54.248Z,18.8
2019-05-19T01:16:56.675Z,18.9
2019-05-19T01:17:58.826Z,18.8
2019-05-19T01:19:00.997Z,18.8
2019-05-19T01:20:03.157Z,18.8
2019-05-19T01:21:05.586Z,18.9
2019-05-19T01:22:07.754Z,18.8
2019-05-19T01:23:10.174Z,18.8
2019-05-19T01:24:12.613Z,18.8
2019-05-19T01:25:15.062Z,18.7
2019-05-19T01:26:17.497Z,18.8
2019-05-19T01:27:19.672Z,18.9
2019-05-19T01:28:22.095Z,18.8
2019-05-19T01:29:24.534Z,18.9
2019-05-19T01:30:26.697Z,18.9
2019-05-19T01:31:28.885Z,18.8
2019-05-19T01:32:31.106Z,18.9
2019-05-19T01:33:33.286Z,18.8
2019-05-19T01:34:35.723Z,18.9
2019-05-19T01:35:38.156Z,18.9
2019-05-19T01:36:40.348Z,18.9
2019-05-19T01:37:42.776Z,18.8
2019-05-19T01:38:44.932Z,19
2019-05-19T01:39:47.362Z,18.9
2019-05-19T01:40:49.532Z,18.9
2019-05-19T01:41:51.956Z,18.9
2019-05-19T01:42:54.127Z,18.8
2019-05-19T01:43:56.264Z,18.8
2019-05-19T01:44:58.394Z,18.8
2019-05-19T01:46:00.554Z,18.8
2019-05-19T01:47:02.994Z,18.8
2019-05-19T01:48:05.142Z,18.8
2019-05-19T01:49:07.615Z,18.9
2019-05-19T01:51:14.483Z,18.9
2019-05-19T01:52:16.907Z,19
2019-05-19T01:53:19.055Z,18.8
2019-05-19T01:54:21.488Z,18.9
2019-05-19T01:55:23.645Z,18.8
2019-05-19T01:56:25.246Z,18.9
2019-05-19T01:57:27.393Z,19.1
2019-05-19T01:58:29.816Z,18.9
2019-05-19T01:59:31.962Z,18.8
2019-05-19T02:00:34.122Z,18.8
2019-05-19T02:01:36.571Z,18.8
2019-05-19T02:02:38.994Z,18.9
2019-05-19T02:03:41.444Z,18.9
2019-05-19T02:04:43.877Z,18.9
2019-05-19T02:05:46.049Z,18.9
2019-05-19T02:06:48.488Z,18.8
2019-05-19T02:07:50.946Z,19
2019-05-19T02:08:53.068Z,18.9
2019-05-19T02:09:55.226Z,18.9
2019-05-19T02:10:57.378Z,19
2019-05-19T02:11:59.805Z,18.8
2019-05-19T02:14:07.216Z,18.9
2019-05-19T02:15:09.653Z,18.9
2019-05-19T02:16:12.082Z,18.9
2019-05-19T02:17:14.505Z,18.9
2019-05-19T02:18:16.951Z,19
2019-05-19T02:19:19.389Z,19
2019-05-19T02:21:26.526Z,19
2019-05-19T02:22:28.956Z,18.9
2019-05-19T02:23:31.976Z,18.9
2019-05-19T02:24:34.394Z,18.9
2019-05-19T02:25:36.579Z,18.9
2019-05-19T02:26:38.724Z,18.9
2019-05-19T02:27:40.900Z,18.9
2019-05-19T02:28:43.074Z,18.9
2019-05-19T02:29:45.503Z,18.9
2019-05-19T02:30:47.944Z,18.9
2019-05-19T02:31:50.082Z,18.9
2019-05-19T02:32:52.246Z,19
2019-05-19T02:33:54.700Z,18.9
2019-05-19T02:34:57.132Z,18.8
2019-05-19T02:35:59.561Z,19
2019-05-19T02:37:01.725Z,19
2019-05-19T02:38:03.915Z,18.9
2019-05-19T02:39:06.057Z,19
2019-05-19T02:40:08.595Z,18.9
2019-05-19T02:41:10.768Z,18.9
2019-05-19T02:42:13.189Z,18.9
2019-05-19T02:43:15.638Z,19
2019-05-19T02:44:17.497Z,18.9
2019-05-19T02:45:19.990Z,19
2019-05-19T02:46:22.157Z,19
2019-05-19T02:47:24.315Z,18.9
2019-05-19T02:48:26.752Z,19
2019-05-19T02:49:29.164Z,18.9
2019-05-19T02:50:31.369Z,18.9
2019-05-19T02:51:37.784Z,18.9
2019-05-19T02:52:39.666Z,18.9
2019-05-19T02:53:41.825Z,19
2019-05-19T02:54:43.971Z,19
2019-05-19T02:55:46.145Z,19
2019-05-19T02:56:48.297Z,19
2019-05-19T02:57:50.452Z,18.9
2019-05-19T02:58:52.638Z,19
2019-05-19T02:59:55.076Z,19
2019-05-19T03:00:57.513Z,19
2019-05-19T03:01:59.691Z,18.9
2019-05-19T03:03:02.113Z,18.9
2019-05-19T03:04:04.280Z,19
2019-05-19T03:05:06.698Z,18.9
2019-05-19T03:06:09.137Z,18.9
2019-05-19T03:07:11.556Z,18.9
2019-05-19T03:08:13.780Z,19
2019-05-19T03:09:15.936Z,18.9
2019-05-19T03:10:18.354Z,18.8
2019-05-19T03:11:20.787Z,18.9
2019-05-19T03:12:22.936Z,18.9
2019-05-19T03:13:25.368Z,18.8
2019-05-19T03:14:27.670Z,18.9
2019-05-19T03:15:30.133Z,18.7
2019-05-19T03:16:32.568Z,18.7
2019-05-19T03:17:34.731Z,18.8
2019-05-19T03:18:37.015Z,18.7
2019-05-19T03:19:39.438Z,18.7
2019-05-19T03:20:41.328Z,18.7
2019-05-19T03:21:43.753Z,18.7
2019-05-19T03:22:45.894Z,18.7
2019-05-19T03:23:48.342Z,18.7
2019-05-19T03:24:50.766Z,18.7
2019-05-19T03:25:52.957Z,18.6
2019-05-19T03:26:54.839Z,18.6
2019-05-19T03:27:57.483Z,18.7
2019-05-19T03:28:59.993Z,18.7
2019-05-19T03:30:02.459Z,18.7
2019-05-19T03:31:04.893Z,18.7
2019-05-19T03:33:12.334Z,18.6
2019-05-19T03:34:14.565Z,18.7
2019-05-19T03:35:16.436Z,18.6
2019-05-19T03:36:18.865Z,18.6
2019-05-19T03:37:21.032Z,18.6
2019-05-19T03:38:23.451Z,18.6
2019-05-19T03:39:25.892Z,18.6
2019-05-19T03:40:27.787Z,18.7
2019-05-19T03:41:30.216Z,18.6
2019-05-19T03:42:32.353Z,18.6
2019-05-19T03:43:34.556Z,18.6
2019-05-19T03:44:36.993Z,18.7
2019-05-19T03:45:39.419Z,18.6
2019-05-19T03:46:41.553Z,18.5
2019-05-19T03:47:43.718Z,18.6
2019-05-19T03:48:45.877Z,18.6
2019-05-19T03:49:48.022Z,18.5
2019-05-19T03:50:50.470Z,18.7
2019-05-19T03:51:52.919Z,18.5
2019-05-19T03:52:55.068Z,18.6
2019-05-19T03:53:57.488Z,18.6
2019-05-19T03:54:59.944Z,18.5
2019-05-19T03:56:02.373Z,18.5
2019-05-19T03:57:04.813Z,18.6
2019-05-19T03:58:06.666Z,18.6
2019-05-19T03:59:09.656Z,18.5
2019-05-19T04:00:11.787Z,18.6
2019-05-19T04:01:13.925Z,18.7
2019-05-19T04:02:16.358Z,18.6
2019-05-19T04:03:18.253Z,18.6
2019-05-19T04:04:20.407Z,18.6
2019-05-19T04:05:22.575Z,18.6
2019-05-19T04:06:24.724Z,18.5
2019-05-19T04:07:27.160Z,18.5
2019-05-19T04:08:29.319Z,18.5
2019-05-19T04:09:31.490Z,18.5
2019-05-19T04:10:33.623Z,18.5
2019-05-19T04:11:36.052Z,18.5
2019-05-19T04:12:38.479Z,18.5
2019-05-19T04:13:40.905Z,18.5
2019-05-19T04:14:43.341Z,18.5
2019-05-19T04:15:45.531Z,18.6
2019-05-19T04:16:48.003Z,18.6
2019-05-19T04:17:50.163Z,18.5
2019-05-19T04:18:52.589Z,18.5
2019-05-19T04:19:55.024Z,18.5
2019-05-19T04:20:56.884Z,18.4
2019-05-19T04:21:59.320Z,18.5
2019-05-19T04:23:01.490Z,18.5
2019-05-19T04:24:03.394Z,18.5
2019-05-19T04:25:05.639Z,18.5
2019-05-19T04:26:07.541Z,18.5
2019-05-19T04:27:09.963Z,18.6
2019-05-19T04:28:12.476Z,18.5
2019-05-19T04:29:14.906Z,18.5
2019-05-19T04:30:17.072Z,18.6
2019-05-19T04:31:19.491Z,18.5
2019-05-19T04:32:21.643Z,18.5
2019-05-19T04:33:23.818Z,18.5
2019-05-19T04:34:26.238Z,18.6
2019-05-19T04:35:28.653Z,18.6
2019-05-19T04:36:30.817Z,18.6
2019-05-19T04:37:32.997Z,18.6
2019-05-19T04:38:34.883Z,18.4
2019-05-19T04:39:37.302Z,18.5
2019-05-19T04:40:39.731Z,18.5
2019-05-19T04:41:41.625Z,18.5
2019-05-19T04:42:43.825Z,18.4
2019-05-19T04:43:46.260Z,18.5
2019-05-19T04:44:48.410Z,18.4
2019-05-19T04:45:50.266Z,18.5
2019-05-19T04:46:52.425Z,18.4
2019-05-19T04:47:54.856Z,18.5
2019-05-19T04:48:56.998Z,18.5
2019-05-19T04:49:59.420Z,18.4
2019-05-19T04:51:01.857Z,18.5
2019-05-19T04:53:09.274Z,18.4
2019-05-19T04:54:11.446Z,18.5
2019-05-19T04:55:13.885Z,18.5
2019-05-19T04:57:21.298Z,18.5
2019-05-19T04:58:23.480Z,18.4
2019-05-19T04:59:25.951Z,18.5
2019-05-19T05:00:28.378Z,18.5
2019-05-19T05:01:30.508Z,18.6
2019-05-19T05:02:32.945Z,18.4
2019-05-19T05:03:35.393Z,18.6
2019-05-19T05:04:37.816Z,18.4
2019-05-19T05:05:40.258Z,18.5
2019-05-19T05:06:42.686Z,18.4
2019-05-19T05:07:45.728Z,18.4
2019-05-19T05:08:48.153Z,18.5
2019-05-19T05:09:50.304Z,18.5
2019-05-19T05:10:52.454Z,18.4
2019-05-19T05:11:54.586Z,18.5
2019-05-19T05:12:57.012Z,18.6
2019-05-19T05:13:59.442Z,18.5
2019-05-19T05:15:01.612Z,18.4
2019-05-19T05:16:03.756Z,18.6
2019-05-19T05:17:06.196Z,18.4
2019-05-19T05:18:08.625Z,18.5
2019-05-19T05:19:11.087Z,18.4
2019-05-19T05:20:13.546Z,18.5
2019-05-19T05:21:15.966Z,18.4
2019-05-19T05:23:23.105Z,18.5
2019-05-19T05:25:30.527Z,18.4
2019-05-19T05:26:32.966Z,18.5
2019-05-19T05:27:35.388Z,18.3
2019-05-19T05:28:37.524Z,18.4
2019-05-19T05:29:39.944Z,18.6
2019-05-19T05:30:42.078Z,18.4
2019-05-19T05:31:43.966Z,18.5
2019-05-19T05:32:46.386Z,18.4
2019-05-19T05:33:48.846Z,18.5
2019-05-19T05:34:51.280Z,18.5
2019-05-19T05:35:53.714Z,18.4
2019-05-19T05:36:55.858Z,18.2
2019-05-19T05:37:58.002Z,18.4
2019-05-19T05:39:00.434Z,18.4
2019-05-19T05:40:02.587Z,18.4
2019-05-19T05:41:05.110Z,18.4
2019-05-19T05:42:07.010Z,18.4
2019-05-19T05:43:09.164Z,18.4
2019-05-19T05:44:11.596Z,18.4
2019-05-19T05:45:13.771Z,18.5
2019-05-19T05:46:16.232Z,18.5
2019-05-19T05:47:18.404Z,18.4
2019-05-19T05:48:20.304Z,18.4
2019-05-19T05:49:22.731Z,18.5
2019-05-19T05:50:25.195Z,18.5
2019-05-19T05:51:27.348Z,18.3
2019-05-19T05:53:34.775Z,18.4
2019-05-19T05:54:37.207Z,18.4
2019-05-19T05:55:39.657Z,18.5
2019-05-19T05:56:42.094Z,18.5
2019-05-19T05:57:44.529Z,18.4
2019-05-19T05:58:47.144Z,18.5
2019-05-19T05:59:49.587Z,18.5
2019-05-19T06:00:52.036Z,18.4
2019-05-19T06:01:54.176Z,18.4
2019-05-19T06:02:56.331Z,18.5
2019-05-19T06:03:58.750Z,18.4
2019-05-19T06:05:01.185Z,18.4
2019-05-19T06:06:03.596Z,18.3
2019-05-19T06:07:06.027Z,18.4
2019-05-19T06:08:08.156Z,18.4
2019-05-19T06:09:10.586Z,18.4
2019-05-19T06:10:13.010Z,18.4
2019-05-19T06:11:15.438Z,18.3
2019-05-19T06:12:17.863Z,18.5
2019-05-19T06:13:20.295Z,18.4
2019-05-19T06:14:23.060Z,18.4
2019-05-19T06:15:25.708Z,18.4
2019-05-19T06:16:27.593Z,18.3
2019-05-19T06:17:29.843Z,18.4
2019-05-19T06:18:33.346Z,18.4
2019-05-19T06:19:36.419Z,18.3
2019-05-19T06:20:38.565Z,18.5
2019-05-19T06:21:40.974Z,18.5
2019-05-19T06:23:48.440Z,18.4
2019-05-19T06:24:51.469Z,18.5
2019-05-19T06:25:53.338Z,18.4
2019-05-19T06:26:55.483Z,18.3
2019-05-19T06:27:58.626Z,18.4
2019-05-19T06:29:02.490Z,18.4
2019-05-19T06:30:08.009Z,18.3
2019-05-19T06:31:10.424Z,18.4
2019-05-19T06:32:13.294Z,18.3
2019-05-19T06:33:15.716Z,18.4
2019-05-19T06:34:17.589Z,18.3
2019-05-19T06:35:20.215Z,18.5
2019-05-19T06:36:22.640Z,18.4
2019-05-19T06:37:25.068Z,18.4
2019-05-19T06:38:27.220Z,18.4
2019-05-19T06:39:30.072Z,18.4
2019-05-19T06:40:32.497Z,18.4
2019-05-19T06:41:34.924Z,18.5
2019-05-19T06:42:36.791Z,18.3
2019-05-19T06:43:38.951Z,18.4
2019-05-19T06:44:41.383Z,18.2
2019-05-19T06:45:43.828Z,18.4
2019-05-19T06:46:46.274Z,18.5
2019-05-19T06:47:48.402Z,18.4
2019-05-19T06:48:50.827Z,18.4
2019-05-19T06:49:53.255Z,18.5
2019-05-19T06:50:55.679Z,18.4
2019-05-19T06:51:58.102Z,18.3
2019-05-19T06:54:05.562Z,18.4
2019-05-19T06:55:07.708Z,18.2
2019-05-19T06:56:10.144Z,18.4
2019-05-19T06:57:12.864Z,18.3
2019-05-19T06:58:15.171Z,18.4
2019-05-19T06:59:17.109Z,18.3
2019-05-19T07:00:19.697Z,18.4
2019-05-19T07:01:22.135Z,18.4
2019-05-19T07:02:24.558Z,18.3
2019-05-19T07:03:26.985Z,18.4
2019-05-19T07:04:29.167Z,18.4
2019-05-19T07:05:32.090Z,18.4
2019-05-19T07:06:34.875Z,18.3
2019-05-19T07:07:37.895Z,18.4
2019-05-19T07:08:40.326Z,18.4
2019-05-19T07:10:47.762Z,18.4
2019-05-19T07:11:49.896Z,18.4
2019-05-19T07:12:52.346Z,18.3
2019-05-19T07:13:54.774Z,18.5
2019-05-19T07:14:57.202Z,18.3
2019-05-19T07:15:59.369Z,18.3
2019-05-19T07:17:01.805Z,18.2
2019-05-19T07:18:04.269Z,18.4
2019-05-19T07:19:06.729Z,18.4
2019-05-19T07:20:08.931Z,18.4
2019-05-19T07:21:11.394Z,18.3
2019-05-19T07:22:13.826Z,18.4
2019-05-19T07:24:20.995Z,18.4
2019-05-19T07:25:23.626Z,18.4
2019-05-19T07:26:26.100Z,18.4
2019-05-19T07:27:29.151Z,18.5
2019-05-19T07:28:31.327Z,18.3
2019-05-19T07:29:33.763Z,18.3
2019-05-19T07:30:36.196Z,18.3
2019-05-19T07:31:38.705Z,18.5
2019-05-19T07:32:41.126Z,18.5
2019-05-19T07:33:43.560Z,18.4
2019-05-19T07:34:45.725Z,18.5
2019-05-19T07:35:48.160Z,18.3
2019-05-19T07:36:50.047Z,18.3
2019-05-19T07:37:52.175Z,18.4
2019-05-19T07:38:54.336Z,18.2
2019-05-19T07:39:56.763Z,18.4
2019-05-19T07:40:59.186Z,18.4
2019-05-19T07:42:01.619Z,18.3
2019-05-19T07:43:04.048Z,18.4
2019-05-19T07:44:06.476Z,18.3
2019-05-19T07:45:08.910Z,18.4
2019-05-19T07:46:11.075Z,18.4
2019-05-19T07:47:13.222Z,18.4
2019-05-19T07:48:15.357Z,18.4
2019-05-19T07:49:17.778Z,18.4
2019-05-19T07:50:20.244Z,18.4
2019-05-19T07:51:22.409Z,18.4
2019-05-19T07:52:25.504Z,18.3
2019-05-19T07:53:40.832Z,18.3
2019-05-19T07:54:33.371Z,18.4
2019-05-19T07:55:35.816Z,18.3
2019-05-19T07:56:38.266Z,18.4
2019-05-19T07:57:40.445Z,18.3
2019-05-19T07:58:42.874Z,18.3
2019-05-19T07:59:45.044Z,18.4
2019-05-19T08:00:46.920Z,18.3
2019-05-19T08:01:49.072Z,18.4
2019-05-19T08:02:51.738Z,18.3
2019-05-19T08:03:54.186Z,18.4
2019-05-19T08:04:56.635Z,18.4
2019-05-19T08:05:59.056Z,18.4
2019-05-19T08:07:01.218Z,18.5
2019-05-19T08:08:04.203Z,18.3
2019-05-19T08:09:06.379Z,18.4
2019-05-19T08:10:08.278Z,18.5
2019-05-19T08:11:10.808Z,18.4
2019-05-19T08:12:13.238Z,18.4
2019-05-19T08:13:15.681Z,18.5
2019-05-19T08:14:17.816Z,18.4
2019-05-19T08:15:19.971Z,18.4
2019-05-19T08:16:22.149Z,18.4
2019-05-19T08:17:26.541Z,18.4
2019-05-19T08:18:28.472Z,18.4
2019-05-19T08:19:30.903Z,18.4
2019-05-19T08:20:33.062Z,18.3
2019-05-19T08:21:35.493Z,18.4
2019-05-19T08:22:37.925Z,18.4
2019-05-19T08:23:40.105Z,18.3
2019-05-19T08:24:41.977Z,18.4
2019-05-19T08:25:44.409Z,18.3
2019-05-19T08:26:46.854Z,18.3
2019-05-19T08:27:49.310Z,18.3
2019-05-19T08:28:51.730Z,18.3
2019-05-19T08:29:54.194Z,18.3
2019-05-19T08:30:56.396Z,18.3
2019-05-19T08:31:58.836Z,18.4
2019-05-19T08:33:00.994Z,18.4
2019-05-19T08:34:03.453Z,18.4
2019-05-19T08:35:05.904Z,18.3
2019-05-19T08:36:08.325Z,18.5
2019-05-19T08:37:10.762Z,18.4
2019-05-19T08:38:13.178Z,18.3
2019-05-19T08:39:15.334Z,18.4
2019-05-19T08:40:17.497Z,18.4
2019-05-19T08:41:19.686Z,18.4
2019-05-19T08:42:22.121Z,18.4
2019-05-19T08:43:24.033Z,18.3
2019-05-19T08:44:26.474Z,18.3
2019-05-19T08:45:28.896Z,18.3
2019-05-19T08:46:31.063Z,18.4
2019-05-19T08:47:33.237Z,18.4
2019-05-19T08:48:35.676Z,18.3
2019-05-19T08:49:38.106Z,18.4
2019-05-19T08:50:40.260Z,18.4
2019-05-19T08:51:42.857Z,18.4
2019-05-19T08:52:45.620Z,18.4
2019-05-19T08:53:47.487Z,18.4
2019-05-19T08:54:49.906Z,18.4
2019-05-19T08:55:52.355Z,18.4
2019-05-19T08:56:54.782Z,18.3
2019-05-19T08:57:57.199Z,18.4
2019-05-19T08:58:59.384Z,18.5
2019-05-19T09:00:01.949Z,18.4
2019-05-19T09:01:04.516Z,18.3
2019-05-19T09:02:06.975Z,18.3
2019-05-19T09:03:09.142Z,18.4
2019-05-19T09:04:11.564Z,18.4
2019-05-19T09:05:13.991Z,18.4
2019-05-19T09:06:16.421Z,18.3
2019-05-19T09:07:18.586Z,18.4
2019-05-19T09:08:20.765Z,18.3
2019-05-19T09:09:22.966Z,18.3
2019-05-19T09:10:24.879Z,18.4
2019-05-19T09:11:27.331Z,18.4
2019-05-19T09:12:29.560Z,18.3
2019-05-19T09:13:32.064Z,18.3
2019-05-19T09:14:34.512Z,18.3
2019-05-19T09:15:37.551Z,18.4
2019-05-19T09:16:39.977Z,18.3
2019-05-19T09:17:41.845Z,18.4
2019-05-19T09:18:44.009Z,18.3
2019-05-19T09:19:46.436Z,18.3
2019-05-19T09:20:48.296Z,18.3
2019-05-19T09:21:50.719Z,18.4
2019-05-19T09:22:53.146Z,18.4
2019-05-19T09:23:55.573Z,18.5
2019-05-19T09:24:58.335Z,18.3
2019-05-19T09:26:00.495Z,18.4
2019-05-19T09:27:02.945Z,18.4
2019-05-19T09:28:05.091Z,18.4
2019-05-19T09:29:07.544Z,18.4
2019-05-19T09:30:09.961Z,18.4
2019-05-19T09:31:12.106Z,18.4
2019-05-19T09:32:14.266Z,18.3
2019-05-19T09:33:16.690Z,18.3
2019-05-19T09:34:18.854Z,18.4
2019-05-19T09:35:21.025Z,18.5
2019-05-19T09:36:23.471Z,18.4
2019-05-19T09:37:25.929Z,18.3
2019-05-19T09:38:28.097Z,18.4
2019-05-19T09:39:30.562Z,18.4
2019-05-19T09:40:32.999Z,18.4
2019-05-19T09:41:35.468Z,18.3
2019-05-19T09:42:37.916Z,18.4
2019-05-19T09:43:39.799Z,18.3
2019-05-19T09:44:42.187Z,18.3
2019-05-19T09:45:44.614Z,18.4
2019-05-19T09:46:47.086Z,18.4
2019-05-19T09:47:49.233Z,18.3
2019-05-19T09:48:51.829Z,18.3
2019-05-19T09:49:54.281Z,18.4
2019-05-19T09:50:56.241Z,18.3
2019-05-19T09:51:58.678Z,18.3
2019-05-19T09:53:00.815Z,18.4
2019-05-19T09:54:03.239Z,18.4
2019-05-19T09:55:05.469Z,18.3
2019-05-19T09:56:08.063Z,18.4
2019-05-19T09:57:10.576Z,18.4
2019-05-19T09:59:18.033Z,18.3
2019-05-19T10:00:20.465Z,18.3
2019-05-19T10:01:22.897Z,18.4
2019-05-19T10:02:25.071Z,18.3
2019-05-19T10:03:26.961Z,18.3
2019-05-19T10:04:29.124Z,18.4
2019-05-19T10:05:31.025Z,18.4
2019-05-19T10:06:33.194Z,18.3
2019-05-19T10:07:35.658Z,18.3
2019-05-19T10:08:37.544Z,18.3
2019-05-19T10:09:39.986Z,18.4
2019-05-19T10:10:42.424Z,18.4
2019-05-19T10:11:44.595Z,18.4
2019-05-19T10:12:47.038Z,18.4
2019-05-19T10:13:49.511Z,18.3
2019-05-19T10:14:51.669Z,18.3
2019-05-19T10:15:53.830Z,18.4
2019-05-19T10:16:56.246Z,18.4
2019-05-19T10:17:58.376Z,18.4
2019-05-19T10:19:00.532Z,18.3
2019-05-19T10:20:03.191Z,18.3
2019-05-19T10:21:05.345Z,18.4
2019-05-19T10:22:07.540Z,18.3
2019-05-19T10:23:09.687Z,18.3
2019-05-19T10:24:11.873Z,18.5
2019-05-19T10:26:18.962Z,18.3
2019-05-19T10:27:22.378Z,18.3
2019-05-19T10:28:24.806Z,18.3
2019-05-19T10:29:26.942Z,18.3
2019-05-19T10:30:29.427Z,18.4
2019-05-19T10:31:31.871Z,18.4
2019-05-19T10:32:34.068Z,18.4
2019-05-19T10:33:36.513Z,18.3
2019-05-19T10:34:38.694Z,18.3
2019-05-19T10:35:41.124Z,18.4
2019-05-19T10:36:43.593Z,18.4
2019-05-19T10:37:46.007Z,18.3
2019-05-19T10:38:48.160Z,18.4
2019-05-19T10:39:50.585Z,18.3
2019-05-19T10:40:52.459Z,18.4
2019-05-19T10:41:54.664Z,18.4
2019-05-19T10:42:57.295Z,18.4
2019-05-19T10:44:01.359Z,18.4
2019-05-19T10:45:03.785Z,18.4
2019-05-19T10:46:05.940Z,18.3
2019-05-19T10:47:08.111Z,18.4
2019-05-19T10:48:10.273Z,18.4
2019-05-19T10:49:12.445Z,18.4
2019-05-19T10:50:14.595Z,18.2
2019-05-19T10:51:17.023Z,18.3
2019-05-19T10:52:19.526Z,18.4
2019-05-19T10:53:22.037Z,18.4
2019-05-19T10:54:24.461Z,18.3
2019-05-19T10:56:31.915Z,18.5
2019-05-19T10:57:34.067Z,18.4
2019-05-19T10:58:36.508Z,18.4
2019-05-19T10:59:38.664Z,18.3
2019-05-19T11:00:41.156Z,18.4
2019-05-19T11:01:43.580Z,18.3
2019-05-19T11:02:45.737Z,18.4
2019-05-19T11:03:47.634Z,18.3
2019-05-19T11:04:49.537Z,18.4
2019-05-19T11:05:52.007Z,18.3
2019-05-19T11:06:54.167Z,18.4
2019-05-19T11:07:56.587Z,18.3
2019-05-19T11:08:59.045Z,18.3
2019-05-19T11:10:01.464Z,18.4
2019-05-19T11:11:03.600Z,18.4
2019-05-19T11:12:06.022Z,18.4
2019-05-19T11:13:08.458Z,18.3
2019-05-19T11:14:10.623Z,18.4
2019-05-19T11:15:13.055Z,18.4
2019-05-19T11:16:15.487Z,18.3
2019-05-19T11:17:17.620Z,18.4
2019-05-19T11:18:19.794Z,18.4
2019-05-19T11:19:22.243Z,18.4
2019-05-19T11:20:24.398Z,18.3
2019-05-19T11:21:26.837Z,18.3
2019-05-19T11:22:28.994Z,18.5
2019-05-19T11:23:30.881Z,18.5
2019-05-19T11:24:33.321Z,18.3
2019-05-19T11:25:35.186Z,18.4
2019-05-19T11:26:41.131Z,18.3
2019-05-19T11:27:43.569Z,18.4
2019-05-19T11:28:45.702Z,18.4
2019-05-19T11:29:48.139Z,18.3
2019-05-19T11:30:50.575Z,18.4
2019-05-19T11:31:52.764Z,18.3
2019-05-19T11:32:55.199Z,18.4
2019-05-19T11:33:57.339Z,18.3
2019-05-19T11:34:59.766Z,18.4
2019-05-19T11:36:02.228Z,18.3
2019-05-19T11:38:09.823Z,18.5
2019-05-19T11:39:12.445Z,18.3
2019-05-19T11:40:14.967Z,18.5
2019-05-19T11:41:17.105Z,18.4
2019-05-19T11:42:19.241Z,18.4
2019-05-19T11:43:21.130Z,18.5
2019-05-19T11:44:23.283Z,18.4
2019-05-19T11:45:25.705Z,18.4
2019-05-19T11:46:28.137Z,18.4
2019-05-19T11:47:30.566Z,18.4
2019-05-19T11:48:32.724Z,18.4
2019-05-19T11:49:35.155Z,18.5
2019-05-19T11:50:41.310Z,18.3
2019-05-19T11:51:42.822Z,18.3
2019-05-19T11:52:45.260Z,18.5
2019-05-19T11:53:47.703Z,18.4
2019-05-19T11:54:49.868Z,18.4
2019-05-19T11:56:56.739Z,18.5
2019-05-19T11:57:59.208Z,18.5
2019-05-19T11:59:01.712Z,18.5
2019-05-19T12:00:04.175Z,18.5
2019-05-19T12:01:06.601Z,18.4
2019-05-19T12:02:09.046Z,18.4
2019-05-19T12:03:11.478Z,18.4
2019-05-19T12:04:13.645Z,18.3
2019-05-19T12:05:15.816Z,18.4
2019-05-19T12:06:17.704Z,18.4
2019-05-19T12:07:20.131Z,18.3
2019-05-19T12:08:22.283Z,18.3
2019-05-19T12:09:24.404Z,18.3
2019-05-19T12:10:26.833Z,18.4
2019-05-19T12:11:29.010Z,18.4
2019-05-19T12:12:31.160Z,18.4
2019-05-19T12:13:35.642Z,18.4
2019-05-19T12:14:37.510Z,18.4
2019-05-19T12:15:39.691Z,18.5
2019-05-19T12:16:41.717Z,18.4
2019-05-19T12:17:44.144Z,18.4
2019-05-19T12:18:46.308Z,18.4
2019-05-19T12:19:48.743Z,18.4
2019-05-19T12:20:51.174Z,18.4
2019-05-19T12:21:53.615Z,18.4
2019-05-19T12:22:56.091Z,18.3
2019-05-19T12:23:58.540Z,18.5
2019-05-19T12:25:00.975Z,18.4
2019-05-19T12:26:03.393Z,18.3
2019-05-19T12:27:05.833Z,18.4
2019-05-19T12:28:08.273Z,18.5
2019-05-19T12:29:10.702Z,18.4
2019-05-19T12:30:12.856Z,18.3
2019-05-19T12:31:15.287Z,18.5
2019-05-19T12:32:17.763Z,18.4
2019-05-19T12:33:20.267Z,18.4
2019-05-19T12:34:22.443Z,18.4
2019-05-19T12:35:24.615Z,18.4
2019-05-19T12:36:27.053Z,18.5
2019-05-19T12:37:29.492Z,18.5
2019-05-19T12:38:31.923Z,18.4
2019-05-19T12:39:34.367Z,18.5
2019-05-19T12:40:36.583Z,18.5
2019-05-19T12:41:38.745Z,18.5
2019-05-19T12:42:41.177Z,18.5
2019-05-19T12:43:43.612Z,18.5
2019-05-19T12:44:45.769Z,18.4
2019-05-19T12:45:47.956Z,18.4
2019-05-19T12:46:50.467Z,18.5
2019-05-19T12:47:52.899Z,18.4
2019-05-19T12:48:55.353Z,18.4
2019-05-19T12:49:57.740Z,18.5
2019-05-19T12:51:00.290Z,18.4
2019-05-19T12:52:02.780Z,18.4
2019-05-19T12:53:04.991Z,18.4
2019-05-19T12:54:07.210Z,18.4
2019-05-19T12:55:09.408Z,18.4
2019-05-19T12:56:11.897Z,18.5
2019-05-19T12:57:14.328Z,18.5
2019-05-19T12:58:16.766Z,18.5
2019-05-19T12:59:19.361Z,18.5
2019-05-19T13:00:21.802Z,18.5
2019-05-19T13:01:24.241Z,18.4
2019-05-19T13:02:26.386Z,18.5
2019-05-19T13:03:28.243Z,18.4
2019-05-19T13:04:30.393Z,18.5
2019-05-19T13:05:32.819Z,18.4
2019-05-19T13:06:35.254Z,18.4
2019-05-19T13:07:37.406Z,18.4
2019-05-19T13:08:39.840Z,18.4
2019-05-19T13:09:41.998Z,18.4
2019-05-19T13:10:44.422Z,18.4
2019-05-19T13:11:46.566Z,18.5
2019-05-19T13:12:48.986Z,18.5
2019-05-19T13:13:51.165Z,18.5
2019-05-19T13:14:53.589Z,18.4
2019-05-19T13:15:55.764Z,18.4
2019-05-19T13:16:58.191Z,18.4
2019-05-19T13:18:00.083Z,18.4
2019-05-19T13:19:02.502Z,18.3
2019-05-19T13:20:04.997Z,18.4
2019-05-19T13:21:07.035Z,18.4
2019-05-19T13:22:09.179Z,18.4
2019-05-19T13:23:11.338Z,18.6
2019-05-19T13:24:13.762Z,18.4
2019-05-19T13:25:15.898Z,18.5
2019-05-19T13:26:18.338Z,18.4
2019-05-19T13:27:20.779Z,18.3
2019-05-19T13:28:23.204Z,18.4
2019-05-19T13:29:25.667Z,18.4
2019-05-19T13:30:27.669Z,18.5
2019-05-19T13:31:30.099Z,18.5
2019-05-19T13:32:32.529Z,18.5
2019-05-19T13:33:34.703Z,18.4
2019-05-19T13:34:37.138Z,18.4
2019-05-19T13:35:39.557Z,18.4
2019-05-19T13:36:41.982Z,18.5
2019-05-19T13:37:44.155Z,18.5
2019-05-19T13:38:46.591Z,18.4
2019-05-19T13:39:48.198Z,18.4
2019-05-19T13:40:50.625Z,18.4
2019-05-19T13:41:53.061Z,18.4
2019-05-19T13:42:55.497Z,18.5
2019-05-19T13:45:02.906Z,18.4
2019-05-19T13:46:05.092Z,18.5
2019-05-19T13:47:08.135Z,18.4
2019-05-19T13:48:10.559Z,18.5
2019-05-19T13:49:12.444Z,18.4
2019-05-19T13:50:14.611Z,18.5
2019-05-19T13:51:16.786Z,18.5
2019-05-19T13:52:18.773Z,18.5
2019-05-19T13:53:21.221Z,18.5
2019-05-19T13:54:23.390Z,18.5
2019-05-19T13:55:25.252Z,18.4
2019-05-19T13:56:27.405Z,18.5
2019-05-19T13:57:29.837Z,18.4
2019-05-19T13:58:31.717Z,18.5
2019-05-19T13:59:33.862Z,18.3
2019-05-19T14:00:35.725Z,18.3
2019-05-19T14:01:38.177Z,18.5
2019-05-19T14:02:40.714Z,18.5
2019-05-19T14:03:43.156Z,18.5
2019-05-19T14:04:45.053Z,18.4
2019-05-19T14:05:47.471Z,18.5
2019-05-19T14:06:49.353Z,18.5
2019-05-19T14:07:51.793Z,18.4
2019-05-19T14:08:54.243Z,18.5
2019-05-19T14:09:56.135Z,18.5
2019-05-19T14:10:58.576Z,18.5
2019-05-19T14:12:01.003Z,18.4